sensor_id;sensor_type;location;lat;lon;timestamp;pressure;altitude;pressure_sealevel;temperature;humidity
32642;BME280;19323;56.072;9.698;2023-04-15T00:01:58;100564.81;;;26.55;38.47
32642;BME280;19323;56.072;9.698;2023-04-15T00:04:24;100552.38;;;26.54;38.59
32642;BME280;19323;56.072;9.698;2023-04-15T00:06:50;100546.16;;;26.54;38.49
32642;BME280;19323;56.072;9.698;2023-04-15T00:09:17;100551.53;;;26.54;38.36
32642;BME280;19323;56.072;9.698;2023-04-15T00:11:42;100548.03;;;26.53;38.26
32642;BME280;19323;56.072;9.698;2023-04-15T00:14:07;100546.34;;;26.52;38.64
32642;BME280;19323;56.072;9.698;2023-04-15T00:16:32;100548.19;;;26.51;38.30
32642;BME280;19323;56.072;9.698;2023-04-15T00:18:58;100555.25;;;26.52;38.18
32642;BME280;19323;56.072;9.698;2023-04-15T00:21:23;100552.56;;;26.52;38.39
32642;BME280;19323;56.072;9.698;2023-04-15T00:23:48;100548.19;;;26.51;38.15
32642;BME280;19323;56.072;9.698;2023-04-15T00:26:16;100545.50;;;26.51;38.23
32642;BME280;19323;56.072;9.698;2023-04-15T00:28:43;100544.66;;;26.51;38.34
32642;BME280;19323;56.072;9.698;2023-04-15T00:31:08;100548.34;;;26.50;38.50
32642;BME280;19323;56.072;9.698;2023-04-15T00:33:33;100547.53;;;26.49;38.40
32642;BME280;19323;56.072;9.698;2023-04-15T00:36:00;100548.53;;;26.48;38.47
32642;BME280;19323;56.072;9.698;2023-04-15T00:38:26;100544.00;;;26.49;38.52
32642;BME280;19323;56.072;9.698;2023-04-15T00:40:52;100543.16;;;26.48;38.18
32642;BME280;19323;56.072;9.698;2023-04-15T00:43:17;100541.31;;;26.49;38.46
32642;BME280;19323;56.072;9.698;2023-04-15T00:45:42;100536.97;;;26.48;38.41
32642;BME280;19323;56.072;9.698;2023-04-15T00:48:07;100541.47;;;26.47;38.28
32642;BME280;19323;56.072;9.698;2023-04-15T00:50:33;100539.81;;;26.46;38.26
32642;BME280;19323;56.072;9.698;2023-04-15T00:52:58;100521.00;;;26.46;38.03
32642;BME280;19323;56.072;9.698;2023-04-15T00:55:23;100538.13;;;26.45;38.46
32642;BME280;19323;56.072;9.698;2023-04-15T00:57:49;100532.75;;;26.45;38.31
32642;BME280;19323;56.072;9.698;2023-04-15T01:00:14;100532.75;;;26.45;38.26
32642;BME280;19323;56.072;9.698;2023-04-15T01:02:40;100528.41;;;26.44;38.34
32642;BME280;19323;56.072;9.698;2023-04-15T01:05:06;100529.41;;;26.43;38.42
32642;BME280;19323;56.072;9.698;2023-04-15T01:07:31;100524.03;;;26.43;38.07
32642;BME280;19323;56.072;9.698;2023-04-15T01:09:57;100526.72;;;26.43;38.05
32642;BME280;19323;56.072;9.698;2023-04-15T01:12:22;100534.75;;;26.43;37.99
32642;BME280;19323;56.072;9.698;2023-04-15T01:14:48;100526.72;;;26.43;38.34
32642;BME280;19323;56.072;9.698;2023-04-15T01:17:13;100530.25;;;26.44;38.19
32642;BME280;19323;56.072;9.698;2023-04-15T01:19:39;100520.50;;;26.43;38.40
32642;BME280;19323;56.072;9.698;2023-04-15T01:22:04;100521.34;;;26.43;38.34
32642;BME280;19323;56.072;9.698;2023-04-15T01:24:30;100517.97;;;26.41;38.39
32642;BME280;19323;56.072;9.698;2023-04-15T01:26:56;100518.84;;;26.42;38.40
32642;BME280;19323;56.072;9.698;2023-04-15T01:29:21;100517.97;;;26.41;38.08
32642;BME280;19323;56.072;9.698;2023-04-15T01:31:50;100520.03;;;26.39;38.18
32642;BME280;19323;56.072;9.698;2023-04-15T01:34:16;100506.59;;;26.39;38.31
32642;BME280;19323;56.072;9.698;2023-04-15T01:36:41;100508.25;;;26.40;38.52
32642;BME280;19323;56.072;9.698;2023-04-15T01:39:06;100513.63;;;26.40;38.39
32642;BME280;19323;56.072;9.698;2023-04-15T01:41:32;100509.28;;;26.39;38.56
32642;BME280;19323;56.072;9.698;2023-04-15T01:43:57;100504.91;;;26.38;38.50
32642;BME280;19323;56.072;9.698;2023-04-15T01:46:22;100512.97;;;26.38;38.49
32642;BME280;19323;56.072;9.698;2023-04-15T01:48:47;100513.78;;;26.39;38.50
32642;BME280;19323;56.072;9.698;2023-04-15T01:51:13;100510.28;;;26.38;38.54
32642;BME280;19323;56.072;9.698;2023-04-15T01:53:38;100510.44;;;26.37;38.25
32642;BME280;19323;56.072;9.698;2023-04-15T01:56:03;100505.06;;;26.37;38.35
32642;BME280;19323;56.072;9.698;2023-04-15T01:58:29;100505.06;;;26.37;38.55
32642;BME280;19323;56.072;9.698;2023-04-15T02:00:54;100505.25;;;26.35;38.32
32642;BME280;19323;56.072;9.698;2023-04-15T02:03:19;100501.72;;;26.35;38.20
32642;BME280;19323;56.072;9.698;2023-04-15T02:05:44;100503.41;;;26.36;38.43
32642;BME280;19323;56.072;9.698;2023-04-15T02:08:10;100503.56;;;26.34;38.31
32642;BME280;19323;56.072;9.698;2023-04-15T02:10:35;100506.25;;;26.34;38.51
32642;BME280;19323;56.072;9.698;2023-04-15T02:13:00;100506.09;;;26.36;38.17
32642;BME280;19323;56.072;9.698;2023-04-15T02:15:25;100503.56;;;26.34;38.43
32642;BME280;19323;56.072;9.698;2023-04-15T02:17:51;100513.47;;;26.34;38.43
32642;BME280;19323;56.072;9.698;2023-04-15T02:20:19;100506.25;;;26.34;38.12
32642;BME280;19323;56.072;9.698;2023-04-15T02:22:45;100509.97;;;26.33;38.51
32642;BME280;19323;56.072;9.698;2023-04-15T02:25:11;100514.47;;;26.33;38.21
32642;BME280;19323;56.072;9.698;2023-04-15T02:27:36;100514.66;;;26.31;38.38
32642;BME280;19323;56.072;9.698;2023-04-15T02:30:01;100514.66;;;26.31;38.51
32642;BME280;19323;56.072;9.698;2023-04-15T02:32:27;100516.31;;;26.32;38.60
32642;BME280;19323;56.072;9.698;2023-04-15T02:34:53;100515.50;;;26.31;38.63
32642;BME280;19323;56.072;9.698;2023-04-15T02:37:18;100519.00;;;26.32;38.51
32642;BME280;19323;56.072;9.698;2023-04-15T02:39:44;100526.22;;;26.31;38.50
32642;BME280;19323;56.072;9.698;2023-04-15T02:42:09;100527.91;;;26.33;38.58
32642;BME280;19323;56.072;9.698;2023-04-15T02:44:37;100527.06;;;26.32;38.49
32642;BME280;19323;56.072;9.698;2023-04-15T02:47:02;100526.22;;;26.31;38.28
32642;BME280;19323;56.072;9.698;2023-04-15T02:49:28;100525.41;;;26.31;38.54
32642;BME280;19323;56.072;9.698;2023-04-15T02:51:54;100529.94;;;26.30;38.27
32642;BME280;19323;56.072;9.698;2023-04-15T02:54:20;100541.50;;;26.31;38.13
32642;BME280;19323;56.072;9.698;2023-04-15T02:56:48;100535.31;;;26.30;38.57
32642;BME280;19323;56.072;9.698;2023-04-15T02:59:14;100540.69;;;26.30;38.25
32642;BME280;19323;56.072;9.698;2023-04-15T03:01:40;100541.50;;;26.31;38.60
32642;BME280;19323;56.072;9.698;2023-04-15T03:04:05;100542.50;;;26.30;38.61
32642;BME280;19323;56.072;9.698;2023-04-15T03:06:32;100540.00;;;26.28;38.61
32642;BME280;19323;56.072;9.698;2023-04-15T03:08:57;100541.66;;;26.29;38.63
32642;BME280;19323;56.072;9.698;2023-04-15T03:11:24;100545.19;;;26.30;38.18
32642;BME280;19323;56.072;9.698;2023-04-15T03:13:50;100539.81;;;26.30;38.38
32642;BME280;19323;56.072;9.698;2023-04-15T03:16:15;100547.88;;;26.30;38.64
32642;BME280;19323;56.072;9.698;2023-04-15T03:18:40;100543.53;;;26.29;38.66
32642;BME280;19323;56.072;9.698;2023-04-15T03:21:06;100535.47;;;26.29;38.54
32642;BME280;19323;56.072;9.698;2023-04-15T03:23:31;100536.47;;;26.28;38.61
32642;BME280;19323;56.072;9.698;2023-04-15T03:25:56;100537.31;;;26.28;38.33
32642;BME280;19323;56.072;9.698;2023-04-15T03:28:22;100532.78;;;26.29;38.44
32642;BME280;19323;56.072;9.698;2023-04-15T03:30:48;100535.31;;;26.30;38.33
32642;BME280;19323;56.072;9.698;2023-04-15T03:33:13;100533.63;;;26.29;38.34
32642;BME280;19323;56.072;9.698;2023-04-15T03:35:38;100535.31;;;26.30;38.54
32642;BME280;19323;56.072;9.698;2023-04-15T03:38:03;100532.78;;;26.29;38.48
32642;BME280;19323;56.072;9.698;2023-04-15T03:40:28;100540.69;;;26.30;38.45
32642;BME280;19323;56.072;9.698;2023-04-15T03:42:54;100533.63;;;26.29;38.51
32642;BME280;19323;56.072;9.698;2023-04-15T03:45:19;100538.16;;;26.29;38.32
32642;BME280;19323;56.072;9.698;2023-04-15T03:47:44;100537.13;;;26.30;38.33
32642;BME280;19323;56.072;9.698;2023-04-15T03:50:09;100534.28;;;26.31;38.52
32642;BME280;19323;56.072;9.698;2023-04-15T03:52:35;100535.31;;;26.30;38.21
32642;BME280;19323;56.072;9.698;2023-04-15T03:55:00;100535.94;;;26.33;38.66
32642;BME280;19323;56.072;9.698;2023-04-15T03:57:25;100537.81;;;26.32;38.42
32642;BME280;19323;56.072;9.698;2023-04-15T03:59:51;100540.50;;;26.32;38.27
32642;BME280;19323;56.072;9.698;2023-04-15T04:02:16;100538.63;;;26.33;38.34
32642;BME280;19323;56.072;9.698;2023-04-15T04:04:41;100537.63;;;26.34;38.27
32642;BME280;19323;56.072;9.698;2023-04-15T04:07:07;100542.00;;;26.35;38.31
32642;BME280;19323;56.072;9.698;2023-04-15T04:09:32;100543.69;;;26.36;38.52
32642;BME280;19323;56.072;9.698;2023-04-15T04:11:58;100546.38;;;26.36;38.34
32642;BME280;19323;56.072;9.698;2023-04-15T04:14:23;100540.16;;;26.35;38.39
32642;BME280;19323;56.072;9.698;2023-04-15T04:16:53;100555.25;;;26.36;38.59
32642;BME280;19323;56.072;9.698;2023-04-15T04:19:18;100554.25;;;26.37;38.25
32642;BME280;19323;56.072;9.698;2023-04-15T04:21:44;100552.41;;;26.38;38.23
32642;BME280;19323;56.072;9.698;2023-04-15T04:24:09;100554.25;;;26.37;38.50
32642;BME280;19323;56.072;9.698;2023-04-15T04:26:34;100558.78;;;26.37;38.24
32642;BME280;19323;56.072;9.698;2023-04-15T04:28:59;100557.94;;;26.36;38.49
32642;BME280;19323;56.072;9.698;2023-04-15T04:31:25;100555.25;;;26.36;38.39
32642;BME280;19323;56.072;9.698;2023-04-15T04:33:50;100560.63;;;26.36;38.58
32642;BME280;19323;56.072;9.698;2023-04-15T04:36:15;100555.25;;;26.36;38.34
32642;BME280;19323;56.072;9.698;2023-04-15T04:38:40;100560.63;;;26.36;38.56
32642;BME280;19323;56.072;9.698;2023-04-15T04:41:06;100556.09;;;26.37;38.22
32642;BME280;19323;56.072;9.698;2023-04-15T04:43:31;100551.56;;;26.37;38.17
32642;BME280;19323;56.072;9.698;2023-04-15T04:45:56;100552.41;;;26.38;38.55
32642;BME280;19323;56.072;9.698;2023-04-15T04:48:21;100560.47;;;26.38;38.53
32642;BME280;19323;56.072;9.698;2023-04-15T04:50:46;100551.56;;;26.37;38.56
32642;BME280;19323;56.072;9.698;2023-04-15T04:53:12;100555.94;;;26.38;38.24
32642;BME280;19323;56.072;9.698;2023-04-15T04:55:37;100563.16;;;26.38;38.17
32642;BME280;19323;56.072;9.698;2023-04-15T04:58:02;100564.81;;;26.39;38.37
32642;BME280;19323;56.072;9.698;2023-04-15T05:00:27;100564.81;;;26.39;38.56
32642;BME280;19323;56.072;9.698;2023-04-15T05:02:53;100567.34;;;26.40;38.44
32642;BME280;19323;56.072;9.698;2023-04-15T05:05:18;100565.69;;;26.39;38.56
32642;BME280;19323;56.072;9.698;2023-04-15T05:07:44;100569.19;;;26.40;38.53
32642;BME280;19323;56.072;9.698;2023-04-15T05:10:09;100569.19;;;26.40;38.42
32642;BME280;19323;56.072;9.698;2023-04-15T05:12:34;100576.41;;;26.39;38.20
32642;BME280;19323;56.072;9.698;2023-04-15T05:15:01;100574.72;;;26.38;38.55
32642;BME280;19323;56.072;9.698;2023-04-15T05:17:26;100531.78;;;26.14;38.32
32642;BME280;19323;56.072;9.698;2023-04-15T05:19:51;100574.72;;;26.38;38.37
32642;BME280;19323;56.072;9.698;2023-04-15T05:22:17;100581.78;;;26.39;38.17
32642;BME280;19323;56.072;9.698;2023-04-15T05:24:42;100585.31;;;26.40;38.53
32642;BME280;19323;56.072;9.698;2023-04-15T05:27:08;100579.94;;;26.40;38.50
32642;BME280;19323;56.072;9.698;2023-04-15T05:29:35;100584.47;;;26.39;38.53
32642;BME280;19323;56.072;9.698;2023-04-15T05:32:00;100586.97;;;26.41;38.46
32642;BME280;19323;56.072;9.698;2023-04-15T05:34:25;100583.44;;;26.40;38.21
32642;BME280;19323;56.072;9.698;2023-04-15T05:36:50;100586.13;;;26.40;38.22
32642;BME280;19323;56.072;9.698;2023-04-15T05:39:16;100585.13;;;26.41;37.99
32642;BME280;19323;56.072;9.698;2023-04-15T05:41:41;100596.22;;;26.38;38.26
32642;BME280;19323;56.072;9.698;2023-04-15T05:44:06;100593.53;;;26.38;38.06
32642;BME280;19323;56.072;9.698;2023-04-15T05:46:31;100599.25;;;26.35;38.38
32642;BME280;19323;56.072;9.698;2023-04-15T05:48:57;100591.84;;;26.37;38.34
32642;BME280;19323;56.072;9.698;2023-04-15T05:51:22;100600.22;;;26.34;38.33
32642;BME280;19323;56.072;9.698;2023-04-15T05:53:47;100599.75;;;26.30;38.23
32642;BME280;19323;56.072;9.698;2023-04-15T05:56:12;100608.13;;;26.27;38.78
32642;BME280;19323;56.072;9.698;2023-04-15T05:58:37;100599.22;;;26.27;38.63
32642;BME280;19323;56.072;9.698;2023-04-15T06:01:03;100604.44;;;26.28;38.37
32642;BME280;19323;56.072;9.698;2023-04-15T06:03:28;100605.28;;;26.29;38.62
32642;BME280;19323;56.072;9.698;2023-04-15T06:05:53;100611.63;;;26.28;38.42
32642;BME280;19323;56.072;9.698;2023-04-15T06:08:18;100611.63;;;26.28;38.70
32642;BME280;19323;56.072;9.698;2023-04-15T06:10:43;100616.00;;;26.29;38.45
32642;BME280;19323;56.072;9.698;2023-04-15T06:13:08;100620.72;;;26.27;38.84
32642;BME280;19323;56.072;9.698;2023-04-15T06:15:34;100622.56;;;26.26;38.74
32642;BME280;19323;56.072;9.698;2023-04-15T06:17:59;100626.06;;;26.27;38.83
32642;BME280;19323;56.072;9.698;2023-04-15T06:20:24;100621.69;;;26.26;38.68
32642;BME280;19323;56.072;9.698;2023-04-15T06:22:50;100629.75;;;26.26;38.72
32642;BME280;19323;56.072;9.698;2023-04-15T06:25:15;100639.84;;;26.24;38.88
32642;BME280;19323;56.072;9.698;2023-04-15T06:27:40;100631.94;;;26.22;38.96
32642;BME280;19323;56.072;9.698;2023-04-15T06:30:06;100639.31;;;26.20;38.73
32642;BME280;19323;56.072;9.698;2023-04-15T06:32:31;100649.22;;;26.20;38.97
32642;BME280;19323;56.072;9.698;2023-04-15T06:34:57;100641.50;;;26.17;38.80
32642;BME280;19323;56.072;9.698;2023-04-15T06:37:22;100636.13;;;26.17;38.75
32642;BME280;19323;56.072;9.698;2023-04-15T06:39:47;100645.19;;;26.16;38.79
32642;BME280;19323;56.072;9.698;2023-04-15T06:42:12;100647.22;;;26.14;38.95
32642;BME280;19323;56.072;9.698;2023-04-15T06:44:37;100649.06;;;26.13;38.89
32642;BME280;19323;56.072;9.698;2023-04-15T06:47:03;100654.44;;;26.13;39.25
32642;BME280;19323;56.072;9.698;2023-04-15T06:49:28;100659.94;;;26.12;39.25
32642;BME280;19323;56.072;9.698;2023-04-15T06:51:53;100665.31;;;26.12;39.09
32642;BME280;19323;56.072;9.698;2023-04-15T06:54:18;100659.28;;;26.09;39.20
32642;BME280;19323;56.072;9.698;2023-04-15T06:56:44;100665.63;;;26.08;39.01
32642;BME280;19323;56.072;9.698;2023-04-15T06:59:09;100666.66;;;26.07;39.00
32642;BME280;19323;56.072;9.698;2023-04-15T07:01:34;100672.69;;;26.09;38.98
32642;BME280;19323;56.072;9.698;2023-04-15T07:03:59;100663.97;;;26.07;38.92
32642;BME280;19323;56.072;9.698;2023-04-15T07:06:25;100674.69;;;26.07;39.36
32642;BME280;19323;56.072;9.698;2023-04-15T07:08:51;100675.72;;;26.06;39.33
32642;BME280;19323;56.072;9.698;2023-04-15T07:11:16;100676.72;;;26.05;39.37
32642;BME280;19323;56.072;9.698;2023-04-15T07:13:41;100675.72;;;26.06;38.98
32642;BME280;19323;56.072;9.698;2023-04-15T07:16:06;100677.38;;;26.07;39.09
32642;BME280;19323;56.072;9.698;2023-04-15T07:18:32;100682.06;;;26.05;38.97
32642;BME280;19323;56.072;9.698;2023-04-15T07:20:58;100684.75;;;26.05;39.21
32642;BME280;19323;56.072;9.698;2023-04-15T07:23:23;100689.28;;;26.05;39.27
32642;BME280;19323;56.072;9.698;2023-04-15T07:25:48;100687.44;;;26.05;39.23
32642;BME280;19323;56.072;9.698;2023-04-15T07:28:13;100694.66;;;26.05;39.13
32642;BME280;19323;56.072;9.698;2023-04-15T07:30:38;100697.19;;;26.06;38.92
32642;BME280;19323;56.072;9.698;2023-04-15T07:33:03;100704.38;;;26.06;39.30
32642;BME280;19323;56.072;9.698;2023-04-15T07:35:29;100701.53;;;26.07;39.01
32642;BME280;19323;56.072;9.698;2023-04-15T07:37:54;100703.41;;;26.07;39.24
32642;BME280;19323;56.072;9.698;2023-04-15T07:40:20;100699.88;;;26.06;38.98
32642;BME280;19323;56.072;9.698;2023-04-15T07:42:46;100707.94;;;26.06;39.08
32642;BME280;19323;56.072;9.698;2023-04-15T07:45:13;100713.94;;;26.08;38.84
32642;BME280;19323;56.072;9.698;2023-04-15T07:47:38;100714.13;;;26.07;39.30
32642;BME280;19323;56.072;9.698;2023-04-15T07:50:04;100711.25;;;26.08;38.97
32642;BME280;19323;56.072;9.698;2023-04-15T07:52:30;100720.34;;;26.07;39.34
32642;BME280;19323;56.072;9.698;2023-04-15T07:54:56;100716.81;;;26.07;39.22
32642;BME280;19323;56.072;9.698;2023-04-15T07:57:21;100723.00;;;26.07;39.23
32642;BME280;19323;56.072;9.698;2023-04-15T07:59:46;100723.00;;;26.07;39.31
32642;BME280;19323;56.072;9.698;2023-04-15T08:02:11;100722.69;;;26.10;39.22
32642;BME280;19323;56.072;9.698;2023-04-15T08:04:36;100723.53;;;26.11;39.28
32642;BME280;19323;56.072;9.698;2023-04-15T08:07:02;100731.41;;;26.13;39.14
32642;BME280;19323;56.072;9.698;2023-04-15T08:09:28;100730.41;;;26.14;39.25
32642;BME280;19323;56.072;9.698;2023-04-15T08:11:53;100741.16;;;26.14;39.34
32642;BME280;19323;56.072;9.698;2023-04-15T08:14:18;100738.47;;;26.14;39.51
32642;BME280;19323;56.072;9.698;2023-04-15T08:16:43;100738.47;;;26.14;39.10
32642;BME280;19323;56.072;9.698;2023-04-15T08:19:08;100747.50;;;26.13;39.57
32642;BME280;19323;56.072;9.698;2023-04-15T08:21:34;100743.00;;;26.13;39.49
32642;BME280;19323;56.072;9.698;2023-04-15T08:23:59;100751.06;;;26.13;39.46
32642;BME280;19323;56.072;9.698;2023-04-15T08:26:24;100754.59;;;26.14;39.10
32642;BME280;19323;56.072;9.698;2023-04-15T08:28:49;100751.75;;;26.15;39.53
32642;BME280;19323;56.072;9.698;2023-04-15T08:31:15;100755.25;;;26.16;39.20
32642;BME280;19323;56.072;9.698;2023-04-15T08:33:41;100758.78;;;26.16;39.59
32642;BME280;19323;56.072;9.698;2023-04-15T08:36:06;100761.47;;;26.16;39.42
32642;BME280;19323;56.072;9.698;2023-04-15T08:38:32;100763.47;;;26.14;39.40
32642;BME280;19323;56.072;9.698;2023-04-15T08:40:59;100760.63;;;26.16;39.58
32642;BME280;19323;56.072;9.698;2023-04-15T08:43:27;100756.25;;;26.15;39.54
32642;BME280;19323;56.072;9.698;2023-04-15T08:45:57;100769.50;;;26.16;39.50
32642;BME280;19323;56.072;9.698;2023-04-15T08:48:24;100769.50;;;26.16;39.48
32642;BME280;19323;56.072;9.698;2023-04-15T08:50:51;100774.06;;;26.16;39.54
32642;BME280;19323;56.072;9.698;2023-04-15T08:53:17;100766.97;;;26.15;39.52
32642;BME280;19323;56.072;9.698;2023-04-15T08:55:43;100778.41;;;26.17;39.26
32642;BME280;19323;56.072;9.698;2023-04-15T08:58:09;100781.78;;;26.19;39.47
32642;BME280;19323;56.072;9.698;2023-04-15T09:00:35;100780.09;;;26.18;39.30
32642;BME280;19323;56.072;9.698;2023-04-15T09:03:01;100781.78;;;26.19;39.07
32642;BME280;19323;56.072;9.698;2023-04-15T09:05:28;100782.59;;;26.19;39.37
32642;BME280;19323;56.072;9.698;2023-04-15T09:07:55;100791.53;;;26.20;39.20
32642;BME280;19323;56.072;9.698;2023-04-15T09:10:20;100794.34;;;26.18;39.05
32642;BME280;19323;56.072;9.698;2023-04-15T09:12:45;100794.34;;;26.18;39.37
32642;BME280;19323;56.072;9.698;2023-04-15T09:15:11;100793.53;;;26.18;39.37
32642;BME280;19323;56.072;9.698;2023-04-15T09:17:40;100799.72;;;26.18;39.33
32642;BME280;19323;56.072;9.698;2023-04-15T09:20:06;100804.06;;;26.19;38.99
32642;BME280;19323;56.072;9.698;2023-04-15T09:22:32;100803.09;;;26.20;39.34
32642;BME280;19323;56.072;9.698;2023-04-15T09:24:57;100803.94;;;26.21;39.36
32642;BME280;19323;56.072;9.698;2023-04-15T09:27:22;100805.63;;;26.22;39.04
32642;BME280;19323;56.072;9.698;2023-04-15T09:29:48;100810.81;;;26.23;39.24
32642;BME280;19323;56.072;9.698;2023-04-15T09:32:14;100812.66;;;26.23;38.97
32642;BME280;19323;56.072;9.698;2023-04-15T09:34:39;100810.81;;;26.23;39.17
32642;BME280;19323;56.072;9.698;2023-04-15T09:37:05;100811.69;;;26.24;39.19
32642;BME280;19323;56.072;9.698;2023-04-15T09:39:46;100811.69;;;26.24;39.17
32642;BME280;19323;56.072;9.698;2023-04-15T09:42:12;100813.34;;;26.25;39.09
32642;BME280;19323;56.072;9.698;2023-04-15T09:44:38;100815.88;;;26.26;39.19
32642;BME280;19323;56.072;9.698;2023-04-15T09:47:03;100820.22;;;26.27;39.19
32642;BME280;19323;56.072;9.698;2023-04-15T09:49:28;100816.72;;;26.27;38.89
32642;BME280;19323;56.072;9.698;2023-04-15T09:51:56;100823.59;;;26.29;39.15
32642;BME280;19323;56.072;9.698;2023-04-15T09:54:22;100825.44;;;26.29;38.71
32642;BME280;19323;56.072;9.698;2023-04-15T09:56:47;100831.50;;;26.31;38.95
32642;BME280;19323;56.072;9.698;2023-04-15T09:59:12;100829.78;;;26.30;38.67
32642;BME280;19323;56.072;9.698;2023-04-15T10:01:37;100837.69;;;26.31;39.02
32642;BME280;19323;56.072;9.698;2023-04-15T10:04:05;100834.88;;;26.33;38.60
32642;BME280;19323;56.072;9.698;2023-04-15T10:06:30;100834.69;;;26.35;38.60
32642;BME280;19323;56.072;9.698;2023-04-15T10:08:57;100833.53;;;26.37;38.90
32642;BME280;19323;56.072;9.698;2023-04-15T10:11:22;100831.69;;;26.38;38.74
32642;BME280;19323;56.072;9.698;2023-04-15T10:13:48;100839.59;;;26.39;39.12
32642;BME280;19323;56.072;9.698;2023-04-15T10:16:14;100842.94;;;26.41;39.10
32642;BME280;19323;56.072;9.698;2023-04-15T10:18:44;100844.63;;;26.42;39.16
32642;BME280;19323;56.072;9.698;2023-04-15T10:21:10;100841.59;;;26.45;39.13
32642;BME280;19323;56.072;9.698;2023-04-15T10:23:36;100855.56;;;26.49;38.66
32642;BME280;19323;56.072;9.698;2023-04-15T10:26:03;100818.06;;;26.31;38.93
32642;BME280;19323;56.072;9.698;2023-04-15T10:28:28;100857.47;;;26.57;39.00
32642;BME280;19323;56.072;9.698;2023-04-15T10:30:54;100865.03;;;26.61;38.95
32642;BME280;19323;56.072;9.698;2023-04-15T10:33:20;100866.38;;;26.65;38.80
32642;BME280;19323;56.072;9.698;2023-04-15T10:35:45;100864.22;;;26.69;38.44
32642;BME280;19323;56.072;9.698;2023-04-15T10:41:03;100872.78;;;26.73;38.35
32642;BME280;19323;56.072;9.698;2023-04-15T10:43:35;100865.56;;;26.73;38.45
32642;BME280;19323;56.072;9.698;2023-04-15T10:46:01;100870.09;;;26.73;38.35
32642;BME280;19323;56.072;9.698;2023-04-15T10:48:28;100871.63;;;26.75;38.71
32642;BME280;19323;56.072;9.698;2023-04-15T10:50:55;100869.09;;;26.74;38.41
32642;BME280;19323;56.072;9.698;2023-04-15T10:53:30;100877.97;;;26.74;38.74
32642;BME280;19323;56.072;9.698;2023-04-15T10:55:56;100874.31;;;26.75;38.35
32642;BME280;19323;56.072;9.698;2023-04-15T10:58:24;100876.66;;;26.78;38.55
32642;BME280;19323;56.072;9.698;2023-04-15T11:00:50;100872.97;;;26.79;38.26
32642;BME280;19323;56.072;9.698;2023-04-15T11:03:41;100885.09;;;26.83;38.52
32642;BME280;19323;56.072;9.698;2023-04-15T11:06:06;100880.38;;;26.85;38.52
32642;BME280;19323;56.072;9.698;2023-04-15T11:11:16;100887.94;;;26.90;38.51
32642;BME280;19323;56.072;9.698;2023-04-15T11:13:48;100889.47;;;26.92;38.45
32642;BME280;19323;56.072;9.698;2023-04-15T11:16:13;100893.81;;;26.93;38.28
32642;BME280;19323;56.072;9.698;2023-04-15T11:18:38;100897.19;;;26.96;37.91
32642;BME280;19323;56.072;9.698;2023-04-15T11:21:04;100896.19;;;26.97;38.20
32642;BME280;19323;56.072;9.698;2023-04-15T11:23:31;100899.56;;;26.99;37.99
32642;BME280;19323;56.072;9.698;2023-04-15T11:25:56;100891.16;;;27.02;38.29
32642;BME280;19323;56.072;9.698;2023-04-15T11:28:24;100895.53;;;27.03;38.02
32642;BME280;19323;56.072;9.698;2023-04-15T11:30:49;100903.41;;;27.04;38.00
32642;BME280;19323;56.072;9.698;2023-04-15T11:33:15;100903.41;;;27.04;37.60
32642;BME280;19323;56.072;9.698;2023-04-15T11:35:40;100908.47;;;27.07;37.86
32642;BME280;19323;56.072;9.698;2023-04-15T11:38:09;100900.56;;;27.06;37.37
32642;BME280;19323;56.072;9.698;2023-04-15T11:40:36;100914.00;;;27.06;37.28
32642;BME280;19323;56.072;9.698;2023-04-15T11:45:36;100924.63;;;27.07;37.32
32642;BME280;19323;56.072;9.698;2023-04-15T11:48:05;100925.44;;;27.08;37.29
32642;BME280;19323;56.072;9.698;2023-04-15T11:50:31;100926.13;;;27.10;37.12
32642;BME280;19323;56.072;9.698;2023-04-15T11:52:58;100925.09;;;27.11;37.63
32642;BME280;19323;56.072;9.698;2023-04-15T11:55:23;100916.06;;;27.12;37.24
32642;BME280;19323;56.072;9.698;2023-04-15T11:57:50;100924.78;;;27.14;37.08
32642;BME280;19323;56.072;9.698;2023-04-15T12:00:15;100928.16;;;27.16;37.49
32642;BME280;19323;56.072;9.698;2023-04-15T12:02:41;100929.00;;;27.17;37.49
32642;BME280;19323;56.072;9.698;2023-04-15T12:05:07;100919.91;;;27.18;37.36
32642;BME280;19323;56.072;9.698;2023-04-15T12:07:32;100916.06;;;27.20;37.50
32642;BME280;19323;56.072;9.698;2023-04-15T12:09:58;100916.91;;;27.21;37.26
32642;BME280;19323;56.072;9.698;2023-04-15T12:12:27;100930.03;;;27.24;37.02
32642;BME280;19323;56.072;9.698;2023-04-15T12:14:52;100926.50;;;27.23;36.93
32642;BME280;19323;56.072;9.698;2023-04-15T12:17:17;100926.34;;;27.25;37.17
32642;BME280;19323;56.072;9.698;2023-04-15T12:19:42;100934.22;;;27.26;37.46
32642;BME280;19323;56.072;9.698;2023-04-15T12:22:19;100914.22;;;27.21;37.26
32642;BME280;19323;56.072;9.698;2023-04-15T12:24:44;100935.78;;;27.29;37.04
32642;BME280;19323;56.072;9.698;2023-04-15T12:27:12;100940.13;;;27.30;37.07
32642;BME280;19323;56.072;9.698;2023-04-15T12:29:38;100946.19;;;27.32;37.13
32642;BME280;19323;56.072;9.698;2023-04-15T12:32:13;100951.41;;;27.33;37.58
32642;BME280;19323;56.072;9.698;2023-04-15T12:34:42;100946.88;;;27.34;37.58
32642;BME280;19323;56.072;9.698;2023-04-15T12:37:09;100953.06;;;27.35;37.18
32642;BME280;19323;56.072;9.698;2023-04-15T12:39:35;100957.47;;;27.36;37.64
32642;BME280;19323;56.072;9.698;2023-04-15T12:42:01;100956.44;;;27.37;37.66
32642;BME280;19323;56.072;9.698;2023-04-15T12:44:27;100962.66;;;27.37;37.75
32642;BME280;19323;56.072;9.698;2023-04-15T12:46:52;100960.66;;;27.39;37.59
32642;BME280;19323;56.072;9.698;2023-04-15T12:49:17;100958.78;;;27.40;37.63
32642;BME280;19323;56.072;9.698;2023-04-15T12:51:44;100963.19;;;27.41;37.94